sensor_id;sensor_type;location;lat;lon;timestamp;pressure;altitude;pressure_sealevel;temperature;humidity
41260;BME280;26993;48.958;9.330;2022-07-06T00:01:10;98984.84;;;16.05;78.89
41260;BME280;26993;48.958;9.330;2022-07-06T00:03:58;98979.56;;;16.09;78.73
41260;BME280;26993;48.958;9.330;2022-07-06T00:06:45;98982.84;;;16.21;78.21
41260;BME280;26993;48.958;9.330;2022-07-06T00:09:32;98976.91;;;16.14;78.42
41260;BME280;26993;48.958;9.330;2022-07-06T00:12:19;98980.53;;;16.02;78.59
41260;BME280;26993;48.958;9.330;2022-07-06T00:15:06;98986.31;;;16.20;78.10
41260;BME280;26993;48.958;9.330;2022-07-06T00:17:53;98991.50;;;16.21;78.00
41260;BME280;26993;48.958;9.330;2022-07-06T00:20:41;98996.00;;;16.11;78.79
41260;BME280;26993;48.958;9.330;2022-07-06T00:23:28;98996.88;;;16.09;78.79
41260;BME280;26993;48.958;9.330;2022-07-06T00:26:14;98986.47;;;16.10;78.97
41260;BME280;26993;48.958;9.330;2022-07-06T00:29:01;98993.59;;;15.97;79.46
41260;BME280;26993;48.958;9.330;2022-07-06T00:31:48;98987.38;;;16.09;79.41
41260;BME280;26993;48.958;9.330;2022-07-06T00:34:35;98990.81;;;16.11;78.75
41260;BME280;26993;48.958;9.330;2022-07-06T00:37:23;98992.44;;;16.17;78.69
41260;BME280;26993;48.958;9.330;2022-07-06T00:40:11;98984.69;;;16.14;78.78
41260;BME280;26993;48.958;9.330;2022-07-06T00:42:58;98989.88;;;16.15;78.84
41260;BME280;26993;48.958;9.330;2022-07-06T00:45:45;98989.91;;;16.14;79.00
41260;BME280;26993;48.958;9.330;2022-07-06T00:48:32;98989.78;;;16.20;78.34
41260;BME280;26993;48.958;9.330;2022-07-06T00:51:19;98984.53;;;16.25;77.82
41260;BME280;26993;48.958;9.330;2022-07-06T00:54:09;98987.16;;;16.23;77.72
41260;BME280;26993;48.958;9.330;2022-07-06T00:56:56;98990.56;;;16.27;77.53
41260;BME280;26993;48.958;9.330;2022-07-06T00:59:44;98989.81;;;16.17;77.79
41260;BME280;26993;48.958;9.330;2022-07-06T01:02:31;98992.44;;;16.18;78.22
41260;BME280;26993;48.958;9.330;2022-07-06T01:05:18;98989.06;;;16.12;77.94
41260;BME280;26993;48.958;9.330;2022-07-06T01:08:05;98993.50;;;16.04;78.37
41260;BME280;26993;48.958;9.330;2022-07-06T01:10:53;98991.75;;;16.06;78.15
41260;BME280;26993;48.958;9.330;2022-07-06T01:13:40;98982.34;;;15.98;78.64
41260;BME280;26993;48.958;9.330;2022-07-06T01:16:27;98984.97;;;15.97;79.53
41260;BME280;26993;48.958;9.330;2022-07-06T01:19:14;98980.63;;;15.96;78.97
41260;BME280;26993;48.958;9.330;2022-07-06T01:22:02;98979.78;;;15.94;78.84
41260;BME280;26993;48.958;9.330;2022-07-06T01:24:49;98969.41;;;15.94;78.21
41260;BME280;26993;48.958;9.330;2022-07-06T01:27:37;98971.16;;;15.92;77.97
41260;BME280;26993;48.958;9.330;2022-07-06T01:30:24;98974.56;;;15.95;77.24
41260;BME280;26993;48.958;9.330;2022-07-06T01:33:10;98985.94;;;15.90;77.82
41260;BME280;26993;48.958;9.330;2022-07-06T01:35:57;98977.22;;;15.92;77.85
41260;BME280;26993;48.958;9.330;2022-07-06T01:38:46;98978.25;;;15.77;78.26
41260;BME280;26993;48.958;9.330;2022-07-06T01:41:33;98976.59;;;15.73;78.40
41260;BME280;26993;48.958;9.330;2022-07-06T01:44:20;98983.69;;;15.63;79.36
41260;BME280;26993;48.958;9.330;2022-07-06T01:47:07;98972.72;;;15.39;79.82
41260;BME280;26993;48.958;9.330;2022-07-06T01:49:54;98975.44;;;15.30;80.10
41260;BME280;26993;48.958;9.330;2022-07-06T01:52:40;98965.97;;;15.25;80.49
41260;BME280;26993;48.958;9.330;2022-07-06T01:55:29;98973.72;;;15.29;80.48
41260;BME280;26993;48.958;9.330;2022-07-06T01:58:15;98976.28;;;15.32;80.98
41260;BME280;26993;48.958;9.330;2022-07-06T02:01:07;98972.03;;;15.27;80.89
41260;BME280;26993;48.958;9.330;2022-07-06T02:03:54;98969.41;;;15.30;80.85
41260;BME280;26993;48.958;9.330;2022-07-06T02:06:41;98975.63;;;15.15;80.98
41260;BME280;26993;48.958;9.330;2022-07-06T02:09:27;98973.06;;;15.10;81.43
41260;BME280;26993;48.958;9.330;2022-07-06T02:12:16;98982.59;;;15.11;81.36
41260;BME280;26993;48.958;9.330;2022-07-06T02:15:03;98982.59;;;15.08;81.52
41260;BME280;26993;48.958;9.330;2022-07-06T02:17:49;98991.16;;;15.16;82.09
41260;BME280;26993;48.958;9.330;2022-07-06T02:20:36;98992.09;;;15.09;81.99
41260;BME280;26993;48.958;9.330;2022-07-06T02:23:23;98987.88;;;15.02;81.48
41260;BME280;26993;48.958;9.330;2022-07-06T02:26:11;98985.31;;;15.00;81.54
41260;BME280;26993;48.958;9.330;2022-07-06T02:28:59;98999.16;;;14.98;81.72
41260;BME280;26993;48.958;9.330;2022-07-06T02:31:46;98989.56;;;15.04;81.21
41260;BME280;26993;48.958;9.330;2022-07-06T02:34:33;98998.34;;;14.94;81.94
41260;BME280;26993;48.958;9.330;2022-07-06T02:37:20;98997.38;;;15.03;81.98
41260;BME280;26993;48.958;9.330;2022-07-06T02:40:07;98994.88;;;14.94;82.42
41260;BME280;26993;48.958;9.330;2022-07-06T02:42:57;98988.13;;;14.79;82.48
41260;BME280;26993;48.958;9.330;2022-07-06T02:45:45;98988.19;;;14.71;82.73
41260;BME280;26993;48.958;9.330;2022-07-06T02:48:31;98994.25;;;14.71;82.79
41260;BME280;26993;48.958;9.330;2022-07-06T02:51:18;99001.19;;;14.69;82.65
41260;BME280;26993;48.958;9.330;2022-07-06T02:54:05;99000.41;;;14.58;82.96
41260;BME280;26993;48.958;9.330;2022-07-06T02:56:51;99010.81;;;14.53;83.17
41260;BME280;26993;48.958;9.330;2022-07-06T02:59:38;99007.41;;;14.48;83.56
41260;BME280;26993;48.958;9.330;2022-07-06T03:02:26;99016.84;;;14.55;83.68
41260;BME280;26993;48.958;9.330;2022-07-06T03:05:13;99020.41;;;14.43;83.94
41260;BME280;26993;48.958;9.330;2022-07-06T03:08:00;99009.13;;;14.44;83.64
41260;BME280;26993;48.958;9.330;2022-07-06T03:10:47;99012.66;;;14.37;83.60
41260;BME280;26993;48.958;9.330;2022-07-06T03:13:34;99008.31;;;14.39;83.94
41260;BME280;26993;48.958;9.330;2022-07-06T03:16:20;99013.63;;;14.27;83.81
41260;BME280;26993;48.958;9.330;2022-07-06T03:19:08;99021.41;;;14.25;83.80
41260;BME280;26993;48.958;9.330;2022-07-06T03:21:55;99024.00;;;14.22;83.71
41260;BME280;26993;48.958;9.330;2022-07-06T03:24:42;99027.44;;;14.23;83.45
41260;BME280;26993;48.958;9.330;2022-07-06T03:27:28;99025.78;;;14.17;83.99
41260;BME280;26993;48.958;9.330;2022-07-06T03:30:15;99028.47;;;14.02;84.70
41260;BME280;26993;48.958;9.330;2022-07-06T03:33:02;99030.16;;;14.09;84.95
41260;BME280;26993;48.958;9.330;2022-07-06T03:35:50;99031.88;;;14.10;85.63
41260;BME280;26993;48.958;9.330;2022-07-06T03:38:37;99030.22;;;14.00;85.44
41260;BME280;26993;48.958;9.330;2022-07-06T03:41:24;99035.44;;;13.90;85.35
41260;BME280;26993;48.958;9.330;2022-07-06T03:44:10;99036.34;;;13.78;85.62
41260;BME280;26993;48.958;9.330;2022-07-06T03:46:57;99040.69;;;13.81;85.60
41260;BME280;26993;48.958;9.330;2022-07-06T03:49:44;99036.34;;;13.83;85.98
41260;BME280;26993;48.958;9.330;2022-07-06T03:52:32;99039.84;;;13.77;86.08
41260;BME280;26993;48.958;9.330;2022-07-06T03:55:20;99042.38;;;13.85;86.15
41260;BME280;26993;48.958;9.330;2022-07-06T03:58:06;99042.34;;;13.94;86.28
41260;BME280;26993;48.958;9.330;2022-07-06T04:00:53;99035.31;;;14.07;87.01
41260;BME280;26993;48.958;9.330;2022-07-06T04:03:40;99041.31;;;14.16;86.36
41260;BME280;26993;48.958;9.330;2022-07-06T04:06:26;99041.28;;;14.20;86.20
41260;BME280;26993;48.958;9.330;2022-07-06T04:09:15;99038.63;;;14.30;85.54
41260;BME280;26993;48.958;9.330;2022-07-06T04:12:02;99042.00;;;14.41;84.87
41260;BME280;26993;48.958;9.330;2022-07-06T04:14:48;99039.34;;;14.50;84.20
41260;BME280;26993;48.958;9.330;2022-07-06T04:17:35;99039.22;;;14.64;83.95
41260;BME280;26993;48.958;9.330;2022-07-06T04:20:41;99041.78;;;14.73;83.04
41260;BME280;26993;48.958;9.330;2022-07-06T04:23:28;99046.81;;;14.90;82.08
41260;BME280;26993;48.958;9.330;2022-07-06T04:26:16;99040.75;;;14.91;81.57
41260;BME280;26993;48.958;9.330;2022-07-06T04:29:03;99043.16;;;15.09;81.16
41260;BME280;26993;48.958;9.330;2022-07-06T04:31:49;99042.00;;;15.34;80.15
41260;BME280;26993;48.958;9.330;2022-07-06T04:34:36;99049.78;;;15.36;79.59
41260;BME280;26993;48.958;9.330;2022-07-06T04:37:23;99047.19;;;15.36;79.62
41260;BME280;26993;48.958;9.330;2022-07-06T04:40:10;99050.53;;;15.46;79.43
41260;BME280;26993;48.958;9.330;2022-07-06T04:42:58;99057.38;;;15.53;79.86
41260;BME280;26993;48.958;9.330;2022-07-06T04:45:45;99059.03;;;15.59;79.95
41260;BME280;26993;48.958;9.330;2022-07-06T04:48:32;99058.16;;;15.58;80.09
41260;BME280;26993;48.958;9.330;2022-07-06T04:51:21;99060.66;;;15.67;80.10
41260;BME280;26993;48.958;9.330;2022-07-06T04:54:08;99065.75;;;15.75;80.21
41260;BME280;26993;48.958;9.330;2022-07-06T04:56:55;99070.03;;;15.79;79.88
41260;BME280;26993;48.958;9.330;2022-07-06T04:59:43;99071.72;;;15.83;79.99
41260;BME280;26993;48.958;9.330;2022-07-06T05:02:29;99069.91;;;15.92;79.92
41260;BME280;26993;48.958;9.330;2022-07-06T05:05:18;99072.53;;;15.90;79.63
41260;BME280;26993;48.958;9.330;2022-07-06T05:08:05;99070.69;;;15.98;79.70
41260;BME280;26993;48.958;9.330;2022-07-06T05:10:52;99083.44;;;16.15;79.43
41260;BME280;26993;48.958;9.330;2022-07-06T05:13:39;99083.25;;;16.28;79.12
41260;BME280;26993;48.958;9.330;2022-07-06T05:16:27;99085.72;;;16.37;78.56
41260;BME280;26993;48.958;9.330;2022-07-06T05:19:13;99085.59;;;16.46;77.97
41260;BME280;26993;48.958;9.330;2022-07-06T05:22:00;99081.91;;;16.60;77.38
41260;BME280;26993;48.958;9.330;2022-07-06T05:24:47;99083.38;;;16.76;77.71
41260;BME280;26993;48.958;9.330;2022-07-06T05:27:34;99084.88;;;16.93;76.64
41260;BME280;26993;48.958;9.330;2022-07-06T05:30:21;99076.50;;;17.22;76.44
41260;BME280;26993;48.958;9.330;2022-07-06T05:33:09;99088.69;;;18.10;73.02
41260;BME280;26993;48.958;9.330;2022-07-06T05:35:56;99075.31;;;18.97;70.40
41260;BME280;26993;48.958;9.330;2022-07-06T05:38:43;99083.81;;;18.69;69.79
41260;BME280;26993;48.958;9.330;2022-07-06T05:41:30;99088.72;;;18.46;70.21
41260;BME280;26993;48.958;9.330;2022-07-06T05:44:17;99087.84;;;18.09;71.11
41260;BME280;26993;48.958;9.330;2022-07-06T05:47:03;99096.94;;;17.88;72.59
41260;BME280;26993;48.958;9.330;2022-07-06T05:50:09;99089.63;;;17.63;73.50
41260;BME280;26993;48.958;9.330;2022-07-06T05:53:00;99092.22;;;17.63;73.72
41260;BME280;26993;48.958;9.330;2022-07-06T05:55:47;99093.38;;;17.50;73.89
41260;BME280;26993;48.958;9.330;2022-07-06T05:58:34;99093.09;;;17.62;73.06
41260;BME280;26993;48.958;9.330;2022-07-06T06:01:21;99090.97;;;17.83;73.54
41260;BME280;26993;48.958;9.330;2022-07-06T06:04:08;99090.41;;;18.11;71.97
41260;BME280;26993;48.958;9.330;2022-07-06T06:06:56;99094.19;;;18.35;70.39
41260;BME280;26993;48.958;9.330;2022-07-06T06:09:43;99085.59;;;18.69;70.60
41260;BME280;26993;48.958;9.330;2022-07-06T06:12:30;99088.97;;;19.09;69.55
41260;BME280;26993;48.958;9.330;2022-07-06T06:15:17;99086.84;;;19.55;66.82
41260;BME280;26993;48.958;9.330;2022-07-06T06:18:04;99086.47;;;19.67;67.06
41260;BME280;26993;48.958;9.330;2022-07-06T06:20:52;99086.16;;;19.78;65.42
41260;BME280;26993;48.958;9.330;2022-07-06T06:23:40;99088.84;;;19.76;65.27
41260;BME280;26993;48.958;9.330;2022-07-06T06:26:27;99087.75;;;19.84;64.47
41260;BME280;26993;48.958;9.330;2022-07-06T06:29:14;99091.16;;;19.87;64.62
41260;BME280;26993;48.958;9.330;2022-07-06T06:32:01;99093.56;;;19.95;64.01
41260;BME280;26993;48.958;9.330;2022-07-06T06:34:48;99096.25;;;19.92;64.34
41260;BME280;26993;48.958;9.330;2022-07-06T06:37:35;99106.31;;;19.74;63.91
41260;BME280;26993;48.958;9.330;2022-07-06T06:40:23;99097.09;;;19.92;64.59
41260;BME280;26993;48.958;9.330;2022-07-06T06:43:10;99100.78;;;20.15;64.45
41260;BME280;26993;48.958;9.330;2022-07-06T06:45:57;99105.81;;;20.23;63.66
41260;BME280;26993;48.958;9.330;2022-07-06T06:48:44;99097.06;;;20.24;64.08
41260;BME280;26993;48.958;9.330;2022-07-06T06:51:32;99097.56;;;20.35;63.17
41260;BME280;26993;48.958;9.330;2022-07-06T06:54:19;99099.28;;;20.63;62.51
41260;BME280;26993;48.958;9.330;2022-07-06T06:57:07;99096.94;;;20.84;62.44
41260;BME280;26993;48.958;9.330;2022-07-06T06:59:54;99094.91;;;20.92;60.93
41260;BME280;26993;48.958;9.330;2022-07-06T07:02:40;99104.16;;;20.47;61.35
41260;BME280;26993;48.958;9.330;2022-07-06T07:05:27;99096.25;;;20.77;60.33
41260;BME280;26993;48.958;9.330;2022-07-06T07:08:14;99090.19;;;20.76;60.74
41260;BME280;26993;48.958;9.330;2022-07-06T07:11:01;99092.31;;;21.16;60.69
41260;BME280;26993;48.958;9.330;2022-07-06T07:13:50;99080.94;;;21.17;60.24
41260;BME280;26993;48.958;9.330;2022-07-06T07:16:36;99088.72;;;20.93;58.78
41260;BME280;26993;48.958;9.330;2022-07-06T07:19:23;99097.03;;;21.06;59.74
41260;BME280;26993;48.958;9.330;2022-07-06T07:22:10;99084.41;;;20.65;59.87
41260;BME280;26993;48.958;9.330;2022-07-06T07:24:57;99090.03;;;20.81;59.38
41260;BME280;26993;48.958;9.330;2022-07-06T07:27:44;99087.00;;;20.94;60.18
41260;BME280;26993;48.958;9.330;2022-07-06T07:30:32;99089.31;;;20.76;60.43
41260;BME280;26993;48.958;9.330;2022-07-06T07:33:19;99089.47;;;20.70;61.41
41260;BME280;26993;48.958;9.330;2022-07-06T07:36:06;99086.34;;;20.32;62.63
41260;BME280;26993;48.958;9.330;2022-07-06T07:38:53;99093.00;;;20.42;61.34
41260;BME280;26993;48.958;9.330;2022-07-06T07:41:40;99090.31;;;20.43;60.80
41260;BME280;26993;48.958;9.330;2022-07-06T07:44:26;99091.78;;;20.52;61.19
41260;BME280;26993;48.958;9.330;2022-07-06T07:47:15;99095.41;;;20.20;63.27
41260;BME280;26993;48.958;9.330;2022-07-06T07:50:01;99093.50;;;20.53;61.74
41260;BME280;26993;48.958;9.330;2022-07-06T07:52:48;99086.59;;;20.51;61.32
41260;BME280;26993;48.958;9.330;2022-07-06T07:55:35;99086.66;;;20.49;61.34
41260;BME280;26993;48.958;9.330;2022-07-06T07:58:22;99082.47;;;20.70;61.37
41260;BME280;26993;48.958;9.330;2022-07-06T08:01:08;99078.09;;;20.71;60.22
41260;BME280;26993;48.958;9.330;2022-07-06T08:03:57;99079.59;;;20.80;61.79
41260;BME280;26993;48.958;9.330;2022-07-06T08:06:44;99081.84;;;20.90;60.89
41260;BME280;26993;48.958;9.330;2022-07-06T08:09:31;99078.00;;;21.01;61.10
41260;BME280;26993;48.958;9.330;2022-07-06T08:12:17;99082.44;;;20.72;61.16
41260;BME280;26993;48.958;9.330;2022-07-06T08:15:05;99089.56;;;20.67;61.50
41260;BME280;26993;48.958;9.330;2022-07-06T08:17:52;99083.78;;;20.85;61.87
41260;BME280;26993;48.958;9.330;2022-07-06T08:20:40;99087.31;;;21.10;61.01
41260;BME280;26993;48.958;9.330;2022-07-06T08:23:27;99086.56;;;21.06;60.74
41260;BME280;26993;48.958;9.330;2022-07-06T08:26:14;99075.31;;;21.28;60.17
41260;BME280;26993;48.958;9.330;2022-07-06T08:29:01;99077.25;;;21.22;61.39
41260;BME280;26993;48.958;9.330;2022-07-06T08:31:48;99081.28;;;21.33;59.88
41260;BME280;26993;48.958;9.330;2022-07-06T08:34:34;99073.59;;;21.27;61.43
41260;BME280;26993;48.958;9.330;2022-07-06T08:37:23;99078.66;;;21.56;59.88
41260;BME280;26993;48.958;9.330;2022-07-06T08:40:09;99079.59;;;21.55;58.63
41260;BME280;26993;48.958;9.330;2022-07-06T08:42:57;99075.78;;;21.64;59.26
41260;BME280;26993;48.958;9.330;2022-07-06T08:45:46;99085.56;;;21.83;59.11
41260;BME280;26993;48.958;9.330;2022-07-06T08:48:37;99083.59;;;21.90;59.52
41260;BME280;26993;48.958;9.330;2022-07-06T08:51:26;99072.81;;;22.19;58.12
41260;BME280;26993;48.958;9.330;2022-07-06T08:54:15;99074.47;;;22.22;57.34
41260;BME280;26993;48.958;9.330;2022-07-06T08:57:04;99083.44;;;22.16;57.93
41260;BME280;26993;48.958;9.330;2022-07-06T08:59:51;99082.03;;;22.08;57.21
41260;BME280;26993;48.958;9.330;2022-07-06T09:02:40;99090.66;;;21.87;57.63
41260;BME280;26993;48.958;9.330;2022-07-06T09:05:27;99082.25;;;21.54;60.01
41260;BME280;26993;48.958;9.330;2022-07-06T09:08:15;99085.25;;;21.92;58.80
41260;BME280;26993;48.958;9.330;2022-07-06T09:11:03;99084.91;;;22.24;59.27
41260;BME280;26993;48.958;9.330;2022-07-06T09:13:50;99091.00;;;22.48;58.38
41260;BME280;26993;48.958;9.330;2022-07-06T09:16:37;99091.28;;;22.40;57.22
41260;BME280;26993;48.958;9.330;2022-07-06T09:19:24;99096.28;;;22.46;59.78
41260;BME280;26993;48.958;9.330;2022-07-06T09:22:24;99093.72;;;22.45;58.63
41260;BME280;26993;48.958;9.330;2022-07-06T09:25:12;99102.66;;;22.41;59.69
41260;BME280;26993;48.958;9.330;2022-07-06T09:28:01;99097.84;;;22.73;58.66
41260;BME280;26993;48.958;9.330;2022-07-06T09:30:54;99091.69;;;22.94;57.77
41260;BME280;26993;48.958;9.330;2022-07-06T09:33:53;99101.16;;;22.78;59.77
41260;BME280;26993;48.958;9.330;2022-07-06T09:36:43;99096.16;;;22.49;57.79
41260;BME280;26993;48.958;9.330;2022-07-06T09:39:30;99097.28;;;22.20;60.94
41260;BME280;26993;48.958;9.330;2022-07-06T09:42:24;99103.03;;;22.30;57.96
41260;BME280;26993;48.958;9.330;2022-07-06T09:45:12;99097.44;;;22.39;59.40
41260;BME280;26993;48.958;9.330;2022-07-06T09:48:05;99103.97;;;22.73;58.67
41260;BME280;26993;48.958;9.330;2022-07-06T09:50:53;99095.44;;;22.89;58.56
41260;BME280;26993;48.958;9.330;2022-07-06T09:53:40;99105.22;;;22.85;58.44
41260;BME280;26993;48.958;9.330;2022-07-06T09:56:36;99100.63;;;23.11;57.97
41260;BME280;26993;48.958;9.330;2022-07-06T09:59:24;99107.00;;;23.05;58.26
41260;BME280;26993;48.958;9.330;2022-07-06T10:02:13;99102.75;;;23.23;55.50
41260;BME280;26993;48.958;9.330;2022-07-06T10:05:01;99093.44;;;23.37;56.43
41260;BME280;26993;48.958;9.330;2022-07-06T10:07:50;99096.59;;;23.45;56.23
41260;BME280;26993;48.958;9.330;2022-07-06T10:10:39;99096.50;;;23.47;55.64
41260;BME280;26993;48.958;9.330;2022-07-06T10:13:27;99106.75;;;23.11;56.61
41260;BME280;26993;48.958;9.330;2022-07-06T10:16:15;99113.03;;;22.87;57.34
41260;BME280;26993;48.958;9.330;2022-07-06T10:19:04;99111.78;;;22.95;56.50
41260;BME280;26993;48.958;9.330;2022-07-06T10:21:52;99110.88;;;22.54;55.95
41260;BME280;26993;48.958;9.330;2022-07-06T10:24:41;99116.63;;;22.63;55.80
41260;BME280;26993;48.958;9.330;2022-07-06T10:27:29;99110.03;;;22.96;56.97
41260;BME280;26993;48.958;9.330;2022-07-06T10:30:15;99106.75;;;23.11;56.77
41260;BME280;26993;48.958;9.330;2022-07-06T10:33:03;99116.56;;;23.08;55.24
41260;BME280;26993;48.958;9.330;2022-07-06T10:35:51;99120.34;;;23.01;55.49
41260;BME280;26993;48.958;9.330;2022-07-06T10:38:38;99112.84;;;22.91;55.55
41260;BME280;26993;48.958;9.330;2022-07-06T10:41:32;99110.16;;;23.13;54.97
41260;BME280;26993;48.958;9.330;2022-07-06T10:44:20;99121.28;;;23.00;55.69
41260;BME280;26993;48.958;9.330;2022-07-06T10:47:08;99115.47;;;22.91;55.64
41260;BME280;26993;48.958;9.330;2022-07-06T10:49:59;99112.16;;;23.29;55.99
41260;BME280;26993;48.958;9.330;2022-07-06T10:52:52;99106.34;;;23.62;54.69
41260;BME280;26993;48.958;9.330;2022-07-06T10:55:40;99107.34;;;23.59;53.76
41260;BME280;26993;48.958;9.330;2022-07-06T10:58:39;99104.75;;;23.58;54.98
41260;BME280;26993;48.958;9.330;2022-07-06T11:01:28;99100.56;;;23.54;55.99
41260;BME280;26993;48.958;9.330;2022-07-06T11:04:15;99093.41;;;23.76;53.89
41260;BME280;26993;48.958;9.330;2022-07-06T11:07:07;99099.34;;;23.42;52.73
41260;BME280;26993;48.958;9.330;2022-07-06T11:09:57;99095.78;;;23.43;52.98
41260;BME280;26993;48.958;9.330;2022-07-06T11:12:44;99093.53;;;23.54;53.85
41260;BME280;26993;48.958;9.330;2022-07-06T11:15:49;99093.09;;;23.64;52.92
41260;BME280;26993;48.958;9.330;2022-07-06T11:18:39;99090.16;;;23.71;53.35
41260;BME280;26993;48.958;9.330;2022-07-06T11:21:35;99102.81;;;23.82;52.58
41260;BME280;26993;48.958;9.330;2022-07-06T11:24:24;99088.66;;;23.85;51.96
41260;BME280;26993;48.958;9.330;2022-07-06T11:27:12;99097.56;;;23.82;52.00
41260;BME280;26993;48.958;9.330;2022-07-06T11:30:00;99082.81;;;23.78;52.73
41260;BME280;26993;48.958;9.330;2022-07-06T11:32:47;99085.25;;;24.02;52.98
41260;BME280;26993;48.958;9.330;2022-07-06T11:35:34;99083.28;;;23.48;52.76
41260;BME280;26993;48.958;9.330;2022-07-06T11:38:27;99081.97;;;23.58;53.81
41260;BME280;26993;48.958;9.330;2022-07-06T11:41:15;99081.28;;;23.53;53.31
41260;BME280;26993;48.958;9.330;2022-07-06T11:44:04;99078.41;;;23.59;53.97
41260;BME280;26993;48.958;9.330;2022-07-06T11:46:51;99073.31;;;23.15;53.80
41260;BME280;26993;48.958;9.330;2022-07-06T11:49:39;99081.41;;;23.31;54.74
41260;BME280;26993;48.958;9.330;2022-07-06T11:52:26;99076.78;;;23.16;53.77
41260;BME280;26993;48.958;9.330;2022-07-06T11:55:14;99087.66;;;23.08;53.78
41260;BME280;26993;48.958;9.330;2022-07-06T11:58:01;99070.72;;;23.13;53.30
41260;BME280;26993;48.958;9.330;2022-07-06T12:01:06;99076.00;;;22.93;54.71
41260;BME280;26993;48.958;9.330;2022-07-06T12:03:57;99077.16;;;23.06;55.28
41260;BME280;26993;48.958;9.330;2022-07-06T12:06:44;99070.16;;;23.27;54.85
41260;BME280;26993;48.958;9.330;2022-07-06T12:09:32;99067.44;;;23.50;54.43
41260;BME280;26993;48.958;9.330;2022-07-06T12:12:19;99062.53;;;23.61;52.53
41260;BME280;26993;48.958;9.330;2022-07-06T12:15:07;99065.03;;;23.45;53.88
41260;BME280;26993;48.958;9.330;2022-07-06T12:17:55;99062.59;;;23.40;54.66
41260;BME280;26993;48.958;9.330;2022-07-06T12:20:42;99064.75;;;23.51;53.91
41260;BME280;26993;48.958;9.330;2022-07-06T12:23:38;99063.66;;;23.55;53.40
41260;BME280;26993;48.958;9.330;2022-07-06T12:26:27;99058.50;;;23.54;52.97
41260;BME280;26993;48.958;9.330;2022-07-06T12:29:15;99070.63;;;23.56;52.52
41260;BME280;26993;48.958;9.330;2022-07-06T12:32:03;99064.53;;;23.56;53.84
41260;BME280;26993;48.958;9.330;2022-07-06T12:35:03;99068.16;;;23.91;53.62
41260;BME280;26993;48.958;9.330;2022-07-06T12:37:56;99068.63;;;24.01;53.01
41260;BME280;26993;48.958;9.330;2022-07-06T12:40:44;99071.50;;;23.76;52.56
41260;BME280;26993;48.958;9.330;2022-07-06T12:43:35;99058.28;;;23.58;54.43
41260;BME280;26993;48.958;9.330;2022-07-06T12:46:29;99058.50;;;23.73;55.02
41260;BME280;26993;48.958;9.330;2022-07-06T12:49:18;99060.94;;;23.77;53.22
41260;BME280;26993;48.958;9.330;2022-07-06T12:52:11;99056.16;;;23.86;52.31
41260;BME280;26993;48.958;9.330;2022-07-06T12:54:59;99058.38;;;23.95;54.37
41260;BME280;26993;48.958;9.330;2022-07-06T12:57:48;99057.09;;;23.85;53.08
41260;BME280;26993;48.958;9.330;2022-07-06T13:00:44;99067.69;;;23.64;53.05
41260;BME280;26993;48.958;9.330;2022-07-06T13:03:37;99053.34;;;23.51;53.86
41260;BME280;26993;48.958;9.330;2022-07-06T13:06:33;99062.31;;;23.47;53.96
41260;BME280;26993;48.958;9.330;2022-07-06T13:09:21;99064.84;;;23.08;53.72
41260;BME280;26993;48.958;9.330;2022-07-06T13:12:08;99062.78;;;22.94;54.28
41260;BME280;26993;48.958;9.330;2022-07-06T13:14:56;99064.13;;;22.84;54.08
41260;BME280;26993;48.958;9.330;2022-07-06T13:17:43;99066.03;;;22.80;53.91
41260;BME280;26993;48.958;9.330;2022-07-06T13:20:30;99059.94;;;22.58;54.25
41260;BME280;26993;48.958;9.330;2022-07-06T13:23:17;99065.66;;;22.68;54.73
41260;BME280;26993;48.958;9.330;2022-07-06T13:26:05;99054.13;;;22.92;54.26
41260;BME280;26993;48.958;9.330;2022-07-06T13:28:52;99065.50;;;22.93;53.34
41260;BME280;26993;48.958;9.330;2022-07-06T13:31:39;99059.22;;;23.18;52.89
41260;BME280;26993;48.958;9.330;2022-07-06T13:34:26;99047.44;;;23.26;53.29
41260;BME280;26993;48.958;9.330;2022-07-06T13:37:13;99052.81;;;23.03;52.06
41260;BME280;26993;48.958;9.330;2022-07-06T13:40:00;99044.19;;;22.99;51.75
41260;BME280;26993;48.958;9.330;2022-07-06T13:42:48;99043.69;;;23.11;52.22
41260;BME280;26993;48.958;9.330;2022-07-06T13:45:36;99038.44;;;23.32;52.39
41260;BME280;26993;48.958;9.330;2022-07-06T13:48:22;99041.72;;;23.56;52.67
41260;BME280;26993;48.958;9.330;2022-07-06T13:51:10;99033.50;;;23.64;50.99
41260;BME280;26993;48.958;9.330;2022-07-06T13:54:04;99036.78;;;23.87;52.68
41260;BME280;26993;48.958;9.330;2022-07-06T13:56:50;99035.19;;;24.03;50.94
41260;BME280;26993;48.958;9.330;2022-07-06T13:59:39;99030.81;;;23.83;50.45
41260;BME280;26993;48.958;9.330;2022-07-06T14:02:25;99025.34;;;24.07;50.28
41260;BME280;26993;48.958;9.330;2022-07-06T14:05:12;99027.66;;;23.96;49.83
41260;BME280;26993;48.958;9.330;2022-07-06T14:07:59;99018.97;;;23.74;50.55
41260;BME280;26993;48.958;9.330;2022-07-06T14:10:46;99022.38;;;23.38;51.65
41260;BME280;26993;48.958;9.330;2022-07-06T14:13:33;99021.03;;;23.49;50.92
41260;BME280;26993;48.958;9.330;2022-07-06T14:16:22;99021.09;;;23.47;51.55
41260;BME280;26993;48.958;9.330;2022-07-06T14:19:09;99012.56;;;23.61;50.43
41260;BME280;26993;48.958;9.330;2022-07-06T14:21:56;99018.09;;;23.36;50.32
41260;BME280;26993;48.958;9.330;2022-07-06T14:24:43;99011.38;;;23.49;51.29
41260;BME280;26993;48.958;9.330;2022-07-06T14:27:30;99008.03;;;23.45;50.24
41260;BME280;26993;48.958;9.330;2022-07-06T14:30:17;99009.22;;;23.38;50.67
41260;BME280;26993;48.958;9.330;2022-07-06T14:33:12;99006.81;;;23.53;50.75
41260;BME280;26993;48.958;9.330;2022-07-06T14:36:01;99010.16;;;23.56;50.03
41260;BME280;26993;48.958;9.330;2022-07-06T14:38:48;99003.19;;;23.55;49.85
41260;BME280;26993;48.958;9.330;2022-07-06T14:41:35;99009.38;;;23.73;50.50
41260;BME280;26993;48.958;9.330;2022-07-06T14:44:25;99012.78;;;23.75;49.10
41260;BME280;26993;48.958;9.330;2022-07-06T14:47:12;98998.13;;;23.70;50.33
41260;BME280;26993;48.958;9.330;2022-07-06T14:50:01;99003.91;;;23.59;49.73